createdAt,value
2019-05-11T00:00:11.280Z,44.50
2019-05-11T00:02:40.787Z,46.20
2019-05-11T00:05:11.923Z,43.93
2019-05-11T00:07:41.445Z,45.00
2019-05-11T00:10:11.166Z,41.23
2019-05-11T00:12:40.650Z,43.93
2019-05-11T00:15:10.492Z,40.43
2019-05-11T00:17:39.964Z,38.10
2019-05-11T00:20:09.837Z,41.30
2019-05-11T00:22:39.314Z,38.73
2019-05-11T00:25:09.095Z,42.10
2019-05-11T00:27:38.658Z,38.97
2019-05-11T00:30:08.408Z,40.03
2019-05-11T00:32:37.994Z,38.73
2019-05-11T00:35:08.236Z,37.37
2019-05-11T00:37:37.752Z,36.50
2019-05-11T00:40:14.451Z,37.77
2019-05-11T00:42:38.532Z,34.27
2019-05-11T00:45:08.291Z,34.47
2019-05-11T00:47:37.782Z,34.03
2019-05-11T00:50:08.363Z,37.23
2019-05-11T00:52:37.910Z,43.23
2019-05-11T00:55:07.980Z,39.17
2019-05-11T00:57:37.478Z,35.00
2019-05-11T01:00:08.222Z,33.87
2019-05-11T01:02:38.262Z,38.73
2019-05-11T01:05:08.272Z,33.27
2019-05-11T01:07:38.111Z,32.33
2019-05-11T01:10:23.082Z,35.50
2019-05-11T01:12:39.740Z,34.97
2019-05-11T01:15:10.171Z,33.63
2019-05-11T01:17:39.667Z,37.83
2019-05-11T01:20:09.258Z,37.00
2019-05-11T01:22:38.701Z,34.90
2019-05-11T01:25:08.506Z,31.70
2019-05-11T01:27:37.957Z,36.40
2019-05-11T01:30:08.058Z,34.23
2019-05-11T01:32:37.659Z,32.53
2019-05-11T01:35:08.467Z,35.33
2019-05-11T01:37:37.934Z,35.23
2019-05-11T01:40:07.791Z,33.87
2019-05-11T01:42:38.342Z,35.20
2019-05-11T01:45:08.018Z,35.57
2019-05-11T01:47:37.446Z,35.90
2019-05-11T01:50:07.141Z,31.37
2019-05-11T01:52:36.687Z,34.50
2019-05-11T01:55:06.471Z,31.67
2019-05-11T01:57:35.913Z,33.63
2019-05-11T02:00:07.891Z,37.03
2019-05-11T02:02:37.371Z,31.77
2019-05-11T02:05:25.989Z,33.93
2019-05-11T02:07:56.679Z,32.53
2019-05-11T02:10:26.611Z,33.60
2019-05-11T02:12:57.377Z,31.20
2019-05-11T02:15:27.141Z,32.90
2019-05-11T02:17:56.679Z,32.17
2019-05-11T02:20:26.198Z,31.97
2019-05-11T02:22:55.699Z,30.53
2019-05-11T02:25:25.351Z,30.57
2019-05-11T02:27:54.750Z,33.93
2019-05-11T02:30:24.222Z,29.60
2019-05-11T02:32:53.767Z,31.80
2019-05-11T02:35:23.201Z,31.87
2019-05-11T02:37:52.660Z,30.63
2019-05-11T02:40:23.874Z,31.60
2019-05-11T02:42:53.372Z,30.17
2019-05-11T02:45:37.834Z,29.00
2019-05-11T02:48:07.369Z,29.60
2019-05-11T02:50:38.516Z,34.53
2019-05-11T02:53:09.123Z,29.97
2019-05-11T02:55:39.518Z,29.43
2019-05-11T02:58:09.340Z,33.10
2019-05-11T03:00:44.403Z,30.43
2019-05-11T03:03:14.030Z,32.30
2019-05-11T03:05:43.556Z,31.20
2019-05-11T03:08:13.059Z,31.30
2019-05-11T03:10:42.479Z,31.27
2019-05-11T03:13:12.157Z,33.73
2019-05-11T03:15:41.753Z,31.97
2019-05-11T03:18:31.922Z,32.90
2019-05-11T03:21:01.364Z,32.67
2019-05-11T03:23:30.818Z,29.90
2019-05-11T03:26:00.305Z,32.03
2019-05-11T03:28:29.754Z,32.30
2019-05-11T03:31:00.310Z,37.40
2019-05-11T03:33:29.804Z,33.33
2019-05-11T03:35:59.285Z,34.03
2019-05-11T03:38:28.713Z,34.17
2019-05-11T03:40:58.218Z,33.77
2019-05-11T03:43:27.681Z,34.63
2019-05-11T03:45:57.120Z,35.17
2019-05-11T03:48:26.578Z,37.13
2019-05-11T03:50:56.040Z,39.50
2019-05-11T03:53:25.487Z,36.87
2019-05-11T03:55:54.935Z,38.70
2019-05-11T03:58:26.176Z,37.20
2019-05-11T04:00:55.472Z,38.43
2019-05-11T04:03:24.923Z,37.80
2019-05-11T04:05:54.378Z,37.57
2019-05-11T04:08:23.863Z,38.73
2019-05-11T04:10:53.314Z,37.60
2019-05-11T04:13:22.776Z,35.23
2019-05-11T04:15:52.306Z,36.87
2019-05-11T04:18:21.770Z,40.03
2019-05-11T04:20:51.255Z,40.60
2019-05-11T04:23:20.742Z,36.07
2019-05-11T04:25:50.230Z,37.77
2019-05-11T04:28:19.740Z,41.17
2019-05-11T04:30:49.206Z,40.27
2019-05-11T04:33:18.691Z,43.83
2019-05-11T04:35:48.123Z,40.73
2019-05-11T04:38:17.613Z,42.80
2019-05-11T04:40:48.115Z,41.27
2019-05-11T04:43:17.523Z,40.07
2019-05-11T04:45:46.940Z,37.27
2019-05-11T04:48:16.395Z,39.03
2019-05-11T04:50:45.856Z,39.47
2019-05-11T04:53:15.338Z,42.77
2019-05-11T04:55:45.041Z,38.23
2019-05-11T04:58:14.816Z,36.40
2019-05-11T05:00:44.334Z,35.90
2019-05-11T05:03:13.807Z,37.97
2019-05-11T05:05:43.247Z,38.20
2019-05-11T05:08:12.725Z,37.73
2019-05-11T05:10:42.165Z,35.98
2019-05-11T05:13:14.247Z,39.13
2019-05-11T05:15:45.884Z,37.70
2019-05-11T05:18:16.084Z,34.87
2019-05-11T05:20:45.511Z,34.70
2019-05-11T05:23:15.023Z,35.60
2019-05-11T05:25:44.512Z,34.97
2019-05-11T05:28:13.986Z,40.03
2019-05-11T05:30:43.432Z,40.53
2019-05-11T05:33:12.891Z,33.90
2019-05-11T05:35:42.379Z,38.03
2019-05-11T05:38:11.843Z,34.43
2019-05-11T05:40:41.288Z,33.97
2019-05-11T05:43:24.383Z,35.97
2019-05-11T05:45:42.043Z,38.60
2019-05-11T05:48:11.731Z,41.10
2019-05-11T05:50:41.216Z,37.27
2019-05-11T05:53:10.696Z,41.00
2019-05-11T05:55:40.198Z,46.30
2019-05-11T05:58:09.658Z,46.03
2019-05-11T06:00:39.099Z,62.43
2019-05-11T06:03:08.645Z,93.70
2019-05-11T06:05:38.080Z,80.10
2019-05-11T06:08:07.540Z,64.23
2019-05-11T06:10:37.040Z,50.80
2019-05-11T06:13:06.546Z,54.43
2019-05-11T06:15:35.971Z,52.97
2019-05-11T06:18:05.512Z,45.57
2019-05-11T06:20:34.986Z,47.20
2019-05-11T06:23:05.510Z,43.97
2019-05-11T06:25:35.038Z,43.60
2019-05-11T06:28:04.552Z,45.67
2019-05-11T06:30:34.196Z,45.87
2019-05-11T06:33:03.694Z,43.60
2019-05-11T06:35:33.166Z,42.23
2019-05-11T06:38:02.613Z,49.23
2019-05-11T06:40:32.170Z,44.80
2019-05-11T06:43:01.634Z,42.10
2019-05-11T06:45:31.144Z,41.73
2019-05-11T06:48:00.650Z,43.13
2019-05-11T06:50:30.182Z,37.03
2019-05-11T06:52:59.708Z,36.10
2019-05-11T06:55:29.162Z,35.47
2019-05-11T06:57:58.618Z,32.20
2019-05-11T07:00:28.196Z,33.73
2019-05-11T07:02:58.132Z,34.13
2019-05-11T07:05:27.619Z,31.67
2019-05-11T07:07:57.145Z,31.77
2019-05-11T07:10:28.290Z,29.97
2019-05-11T07:12:57.749Z,25.47
2019-05-11T07:15:27.339Z,21.83
2019-05-11T07:17:56.776Z,23.17
2019-05-11T07:20:27.343Z,22.73
2019-05-11T07:22:56.835Z,24.80
2019-05-11T07:25:26.847Z,21.77
2019-05-11T07:27:56.350Z,23.83
2019-05-11T07:30:26.954Z,23.67
2019-05-11T07:32:58.123Z,21.10
2019-05-11T07:35:27.975Z,23.67
2019-05-11T07:37:58.153Z,20.17
2019-05-11T07:40:28.017Z,21.20
2019-05-11T07:42:58.998Z,20.07
2019-05-11T07:45:28.650Z,18.73
2019-05-11T07:47:58.938Z,22.00
2019-05-11T07:50:29.708Z,20.70
2019-05-11T07:52:59.226Z,23.67
2019-05-11T07:55:29.268Z,20.40
2019-05-11T07:57:58.768Z,21.00
2019-05-11T08:00:28.311Z,20.57
2019-05-11T08:02:58.519Z,17.93
2019-05-11T08:05:28.529Z,19.73
2019-05-11T08:07:59.532Z,18.23
2019-05-11T08:10:29.492Z,19.33
2019-05-11T08:12:59.364Z,18.97
2019-05-11T08:15:29.212Z,20.87
2019-05-11T08:17:58.887Z,17.97
2019-05-11T08:20:28.491Z,18.60
2019-05-11T08:22:58.674Z,21.67
2019-05-11T08:25:28.823Z,16.13
2019-05-11T08:28:00.489Z,15.80
2019-05-11T08:30:30.079Z,17.43
2019-05-11T08:33:01.005Z,15.57
2019-05-11T08:35:31.266Z,13.70
2019-05-11T08:38:00.999Z,13.47
2019-05-11T08:40:30.490Z,15.50
2019-05-11T08:43:01.745Z,16.97
2019-05-11T08:45:32.751Z,17.17
2019-05-11T08:48:02.311Z,16.73
2019-05-11T08:50:32.838Z,17.60
2019-05-11T08:53:02.318Z,19.50
2019-05-11T08:55:31.819Z,20.00
2019-05-11T08:58:01.475Z,22.83
2019-05-11T09:00:31.010Z,21.33
2019-05-11T09:03:00.517Z,24.13
2019-05-11T09:05:29.931Z,21.43
2019-05-11T09:07:59.491Z,22.03
2019-05-11T09:10:29.092Z,22.30
2019-05-11T09:12:59.243Z,21.27
2019-05-11T09:15:36.446Z,21.43
2019-05-11T09:18:00.040Z,20.67
2019-05-11T09:20:29.516Z,20.67
2019-05-11T09:22:59.174Z,20.87
2019-05-11T09:25:29.783Z,22.13
2019-05-11T09:27:59.328Z,21.57
2019-05-11T09:30:29.005Z,20.53
2019-05-11T09:32:58.874Z,19.90
2019-05-11T09:35:29.222Z,18.90
2019-05-11T09:37:59.220Z,19.50
2019-05-11T09:40:29.991Z,20.37
2019-05-11T09:42:59.660Z,18.90
2019-05-11T09:45:43.591Z,17.87
2019-05-11T09:48:00.995Z,19.80
2019-05-11T09:50:33.339Z,17.27
2019-05-11T09:53:09.112Z,18.43
2019-05-11T09:55:39.084Z,16.20
2019-05-11T09:58:08.698Z,18.20
2019-05-11T10:00:42.320Z,22.63
2019-05-11T10:03:12.956Z,22.13
2019-05-11T10:05:42.369Z,20.70
2019-05-11T10:08:13.410Z,21.00
2019-05-11T10:10:44.057Z,22.13
2019-05-11T10:13:18.541Z,20.57
2019-05-11T10:16:03.525Z,24.67
2019-05-11T10:18:23.931Z,26.33
2019-05-11T10:20:52.036Z,26.47
2019-05-11T10:23:22.235Z,27.90
2019-05-11T10:25:52.300Z,27.37
2019-05-11T10:28:21.875Z,27.57
2019-05-11T10:30:51.530Z,25.90
2019-05-11T10:33:20.971Z,24.60
2019-05-11T10:35:50.455Z,21.40
2019-05-11T10:38:21.155Z,21.57
2019-05-11T10:40:50.665Z,18.90
2019-05-11T10:43:20.291Z,20.50
2019-05-11T10:45:51.950Z,23.53
2019-05-11T10:48:21.398Z,23.13
2019-05-11T10:50:54.693Z,22.00
2019-05-11T10:53:24.309Z,23.77
2019-05-11T10:55:58.595Z,23.03
2019-05-11T10:58:31.393Z,23.47
2019-05-11T11:01:05.397Z,20.50
2019-05-11T11:03:37.893Z,22.60
2019-05-11T11:06:09.321Z,20.90
2019-05-11T11:08:38.819Z,21.50
2019-05-11T11:11:12.403Z,24.23
2019-05-11T11:13:43.422Z,24.80
2019-05-11T11:16:14.554Z,23.40
2019-05-11T11:18:48.544Z,22.07
2019-05-11T11:21:22.976Z,23.80
2019-05-11T11:23:54.139Z,25.40
2019-05-11T11:26:25.139Z,23.40
2019-05-11T11:28:57.995Z,21.07
2019-05-11T11:31:32.573Z,21.67
2019-05-11T11:34:02.123Z,21.60
2019-05-11T11:36:31.638Z,20.00
2019-05-11T11:39:01.735Z,22.37
2019-05-11T11:41:33.406Z,22.67
2019-05-11T11:44:08.011Z,22.90
2019-05-11T11:46:51.201Z,24.13
2019-05-11T11:49:31.415Z,24.67
2019-05-11T11:52:02.829Z,20.53
2019-05-11T11:54:34.592Z,21.17
2019-05-11T11:57:04.379Z,18.80
2019-05-11T11:59:35.633Z,19.70
2019-05-11T12:04:48.579Z,18.53
2019-05-11T12:07:19.551Z,18.43
2019-05-11T12:09:50.297Z,18.70
2019-05-11T12:12:22.816Z,18.37
2019-05-11T12:14:53.594Z,19.67
2019-05-11T12:17:28.386Z,17.97
2019-05-11T12:20:01.956Z,18.30
2019-05-11T12:22:29.478Z,16.87
2019-05-11T12:24:59.098Z,17.33
2019-05-11T12:27:28.754Z,14.53
2019-05-11T12:29:58.425Z,13.10
2019-05-11T12:32:29.555Z,14.20
2019-05-11T12:34:59.080Z,16.50
2019-05-11T12:37:28.533Z,14.27
2019-05-11T12:39:58.315Z,16.63
2019-05-11T12:42:28.391Z,14.67
2019-05-11T12:44:57.994Z,16.17
2019-05-11T12:47:28.300Z,12.20
2019-05-11T12:49:59.217Z,14.40
2019-05-11T12:52:30.704Z,13.57
2019-05-11T12:55:00.521Z,12.70
2019-05-11T12:57:30.015Z,12.70
2019-05-11T12:59:59.558Z,14.10
2019-05-11T13:02:32.470Z,12.50
2019-05-11T13:05:01.970Z,12.57
2019-05-11T13:07:31.929Z,12.67
2019-05-11T13:10:03.945Z,17.03
2019-05-11T13:12:35.044Z,12.93
2019-05-11T13:15:08.243Z,14.50
2019-05-11T13:17:41.039Z,14.83
2019-05-11T13:20:13.234Z,16.10
2019-05-11T13:22:42.742Z,20.07
2019-05-11T13:25:13.791Z,13.50
2019-05-11T13:27:43.768Z,15.63
2019-05-11T13:30:13.384Z,16.90
2019-05-11T13:32:43.010Z,15.37
2019-05-11T13:35:12.787Z,17.00
2019-05-11T13:37:43.357Z,19.20
2019-05-11T13:40:14.685Z,14.47
2019-05-11T13:42:44.289Z,13.30
2019-05-11T13:45:14.301Z,16.03
2019-05-11T13:47:52.678Z,15.73
2019-05-11T13:50:23.221Z,13.93
2019-05-11T13:52:58.317Z,14.90
2019-05-11T13:55:28.521Z,14.60
2019-05-11T13:58:00.557Z,14.57
2019-05-11T14:00:32.918Z,15.00
2019-05-11T14:03:05.154Z,15.40
2019-05-11T14:05:35.208Z,14.73
2019-05-11T14:08:04.841Z,14.03
2019-05-11T14:10:45.131Z,13.13
2019-05-11T14:13:17.557Z,13.50
2019-05-11T14:15:48.111Z,12.53
2019-05-11T14:18:19.379Z,12.23
2019-05-11T14:20:48.843Z,14.80
2019-05-11T14:23:18.445Z,13.27
2019-05-11T14:25:48.671Z,14.77
2019-05-11T14:28:19.341Z,14.63
2019-05-11T14:30:48.838Z,14.63
2019-05-11T14:33:19.966Z,12.70
2019-05-11T14:35:49.484Z,10.27
2019-05-11T14:38:19.081Z,14.60
2019-05-11T14:40:48.465Z,13.27
2019-05-11T14:43:19.485Z,13.50
2019-05-11T14:45:49.033Z,12.83
2019-05-11T14:48:26.401Z,14.07
2019-05-11T14:50:49.764Z,12.27
2019-05-11T14:53:19.175Z,15.33
2019-05-11T14:55:49.001Z,11.97
2019-05-11T14:58:19.866Z,12.80
2019-05-11T15:00:49.706Z,12.70
2019-05-11T15:03:19.224Z,12.23
2019-05-11T15:05:48.711Z,11.57
2019-05-11T15:08:18.246Z,11.27
2019-05-11T15:10:49.633Z,11.53
2019-05-11T15:13:19.167Z,11.87
2019-05-11T15:15:48.929Z,10.67
2019-05-11T15:18:19.435Z,9.30
2019-05-11T15:20:48.879Z,9.47
2019-05-11T15:23:18.382Z,11.27
2019-05-11T15:25:48.766Z,12.03
2019-05-11T15:28:19.011Z,12.77
2019-05-11T15:30:49.032Z,14.87
2019-05-11T15:33:18.563Z,12.87
2019-05-11T15:35:48.202Z,12.13
2019-05-11T15:38:17.986Z,15.97
2019-05-11T15:40:48.766Z,14.27
2019-05-11T15:43:18.366Z,13.83
2019-05-11T15:45:49.038Z,15.47
2019-05-11T15:48:18.863Z,11.13
2019-05-11T15:50:48.660Z,12.60
2019-05-11T15:53:18.193Z,12.03
2019-05-11T15:55:47.641Z,11.50
2019-05-11T15:58:21.801Z,18.70
2019-05-11T16:00:50.409Z,14.80
2019-05-11T16:03:19.863Z,14.50
2019-05-11T16:05:49.367Z,13.47
2019-05-11T16:08:21.226Z,15.10
2019-05-11T16:10:50.717Z,14.20
2019-05-11T16:13:20.825Z,12.47
2019-05-11T16:15:50.336Z,15.07
2019-05-11T16:18:19.861Z,13.93
2019-05-11T16:20:50.531Z,15.17
2019-05-11T16:23:20.401Z,13.87
2019-05-11T16:25:49.918Z,15.10
2019-05-11T16:28:22.306Z,9.90
2019-05-11T16:30:53.291Z,13.20
2019-05-11T16:33:25.118Z,16.12
2019-05-11T16:35:55.310Z,9.88
2019-05-11T16:38:25.463Z,11.12
2019-05-11T16:40:55.005Z,10.95
2019-05-11T16:43:24.526Z,12.65
2019-05-11T16:45:54.832Z,10.68
2019-05-11T16:48:24.326Z,11.33
2019-05-11T16:50:54.393Z,12.23
2019-05-11T16:53:23.842Z,14.10
2019-05-11T16:55:53.350Z,14.87
2019-05-11T16:58:24.155Z,12.93
2019-05-11T17:00:53.627Z,14.30
2019-05-11T17:03:23.093Z,11.35
2019-05-11T17:05:52.572Z,11.30
2019-05-11T17:08:22.075Z,14.23
2019-05-11T17:10:59.147Z,10.82
2019-05-11T17:13:28.633Z,10.05
2019-05-11T17:15:58.421Z,13.68
2019-05-11T17:18:29.062Z,12.20
2019-05-11T17:21:00.214Z,10.05
2019-05-11T17:23:31.089Z,9.55
2019-05-11T17:26:01.404Z,10.78
2019-05-11T17:28:31.683Z,9.48
2019-05-11T17:31:03.021Z,9.18
2019-05-11T17:33:33.399Z,9.15
2019-05-11T17:36:04.803Z,10.50
2019-05-11T17:38:35.395Z,11.57
2019-05-11T17:41:05.115Z,11.80
2019-05-11T17:43:34.562Z,11.35
2019-05-11T17:46:08.073Z,10.43
2019-05-11T17:48:39.871Z,11.75
2019-05-11T17:51:20.576Z,11.30
2019-05-11T17:53:40.425Z,13.32
2019-05-11T17:56:09.878Z,13.30
2019-05-11T17:58:39.421Z,10.90
2019-05-11T18:01:09.456Z,12.27
2019-05-11T18:03:39.020Z,11.67
2019-05-11T18:06:10.111Z,12.53
2019-05-11T18:08:39.496Z,17.57
2019-05-11T18:11:10.403Z,15.57
2019-05-11T18:13:42.377Z,14.17
2019-05-11T18:16:11.979Z,13.10
2019-05-11T18:18:43.617Z,12.83
2019-05-11T18:21:13.204Z,13.80
2019-05-11T18:23:45.095Z,17.07
2019-05-11T18:26:14.603Z,13.43
2019-05-11T18:28:45.394Z,15.77
2019-05-11T18:31:14.952Z,13.73
2019-05-11T18:33:44.519Z,15.37
2019-05-11T18:36:13.997Z,14.43
2019-05-11T18:38:45.408Z,17.97
2019-05-11T18:41:14.704Z,14.23
2019-05-11T18:43:44.284Z,17.97
2019-05-11T18:46:13.747Z,16.30
2019-05-11T18:48:43.219Z,17.33
2019-05-11T18:51:12.770Z,14.13
2019-05-11T18:53:44.198Z,15.97
2019-05-11T18:56:15.283Z,13.47
2019-05-11T18:58:47.845Z,13.70
2019-05-11T19:01:17.796Z,16.37
2019-05-11T19:03:48.018Z,13.10
2019-05-11T19:06:18.352Z,17.17
2019-05-11T19:08:48.234Z,17.53
2019-05-11T19:11:18.245Z,18.40
2019-05-11T19:13:48.399Z,20.27
2019-05-11T19:16:18.739Z,16.70
2019-05-11T19:18:51.921Z,17.47
2019-05-11T19:21:22.104Z,18.00
2019-05-11T19:23:53.107Z,19.67
2019-05-11T19:26:23.243Z,19.07
2019-05-11T19:28:52.715Z,20.33
2019-05-11T19:31:24.968Z,21.37
2019-05-11T19:33:54.183Z,16.43
2019-05-11T19:36:29.459Z,16.47
2019-05-11T19:39:00.639Z,20.00
2019-05-11T19:41:32.939Z,16.67
2019-05-11T19:44:04.914Z,18.13
2019-05-11T19:46:34.434Z,19.20
2019-05-11T19:52:47.850Z,18.43
2019-05-11T19:55:24.313Z,17.50
2019-05-11T19:57:56.797Z,17.53
2019-05-11T20:00:28.243Z,20.67
2019-05-11T20:03:00.395Z,16.90
2019-05-11T20:05:29.960Z,16.90
2019-05-11T20:08:00.278Z,16.83
2019-05-11T20:10:31.692Z,15.63
2019-05-11T20:13:01.154Z,19.80
2019-05-11T20:15:30.635Z,20.60
2019-05-11T20:18:00.113Z,17.87
2019-05-11T20:20:29.676Z,22.17
2019-05-11T20:22:59.409Z,19.83
2019-05-11T20:25:31.535Z,20.33
2019-05-11T20:28:02.012Z,17.97
2019-05-11T20:30:32.090Z,20.23
2019-05-11T20:33:01.703Z,22.67
2019-05-11T20:35:32.583Z,23.63
2019-05-11T20:38:02.328Z,21.77
2019-05-11T20:40:32.038Z,25.20
2019-05-11T20:43:02.925Z,28.53
2019-05-11T20:45:37.786Z,43.97
2019-05-11T20:48:11.024Z,45.47
2019-05-11T20:50:45.003Z,53.90
2019-05-11T20:53:14.611Z,50.13
2019-05-11T20:55:44.225Z,48.77
2019-05-11T20:58:14.814Z,42.30
2019-05-11T21:00:44.760Z,41.47
2019-05-11T21:03:14.680Z,37.70
2019-05-11T21:05:44.801Z,36.87
2019-05-11T21:08:14.376Z,40.23
2019-05-11T21:10:43.934Z,36.90
2019-05-11T21:13:13.383Z,41.53
2019-05-11T21:15:43.459Z,38.40
2019-05-11T21:18:14.294Z,37.93
2019-05-11T21:20:43.840Z,40.90
2019-05-11T21:23:13.296Z,40.77
2019-05-11T21:25:42.790Z,55.00
2019-05-11T21:28:13.878Z,39.07
2019-05-11T21:30:48.079Z,41.17
2019-05-11T21:33:18.708Z,48.87
2019-05-11T21:35:49.856Z,38.87
2019-05-11T21:38:19.342Z,39.60
2019-05-11T21:40:52.036Z,43.30
2019-05-11T21:43:21.513Z,42.60
2019-05-11T21:45:51.004Z,41.33
2019-05-11T21:48:21.922Z,38.73
2019-05-11T21:50:53.240Z,33.10
2019-05-11T21:53:22.703Z,35.97
2019-05-11T21:55:52.194Z,36.50
2019-05-11T21:58:21.634Z,34.60
2019-05-11T22:00:51.974Z,30.63
2019-05-11T22:03:23.870Z,30.10
2019-05-11T22:05:53.395Z,31.40
2019-05-11T22:08:22.879Z,34.33
2019-05-11T22:10:52.456Z,30.20
2019-05-11T22:13:21.910Z,32.90
2019-05-11T22:15:51.382Z,30.43
2019-05-11T22:18:31.000Z,35.90
2019-05-11T22:20:54.247Z,31.97
2019-05-11T22:23:23.722Z,44.77
2019-05-11T22:25:53.169Z,51.97
2019-05-11T22:28:22.739Z,37.57
2019-05-11T22:30:54.731Z,37.80
2019-05-11T22:33:41.404Z,40.23
2019-05-11T22:36:10.806Z,37.57
2019-05-11T22:38:40.494Z,42.37
2019-05-11T22:41:09.954Z,45.90
2019-05-11T22:43:42.128Z,57.10
2019-05-11T22:46:12.024Z,53.50
2019-05-11T22:48:41.524Z,54.83
2019-05-11T22:51:12.329Z,52.40
2019-05-11T22:53:46.700Z,46.77
2019-05-11T22:56:13.038Z,44.50
2019-05-11T22:58:43.602Z,49.43
2019-05-11T23:01:13.183Z,41.93
2019-05-11T23:03:42.669Z,44.47
2019-05-11T23:06:13.452Z,38.30
2019-05-11T23:08:42.893Z,41.50
2019-05-11T23:11:12.382Z,40.97
2019-05-11T23:13:43.488Z,36.70
2019-05-11T23:16:14.054Z,34.37
2019-05-11T23:18:45.095Z,36.93
2019-05-11T23:21:14.577Z,31.33
2019-05-11T23:23:48.216Z,35.17
2019-05-11T23:26:17.950Z,30.27
2019-05-11T23:28:48.724Z,31.47
2019-05-11T23:31:18.329Z,35.33
2019-05-11T23:33:47.824Z,33.03
2019-05-11T23:36:18.274Z,30.50
2019-05-11T23:38:47.888Z,30.53
2019-05-11T23:41:24.549Z,35.27
2019-05-11T23:43:49.338Z,29.63
2019-05-11T23:46:18.834Z,29.53
2019-05-11T23:48:48.661Z,30.93
2019-05-11T23:51:18.275Z,27.70
2019-05-11T23:53:48.023Z,27.27
2019-05-11T23:56:17.436Z,29.50
2019-05-11T23:58:48.278Z,27.57
